createdAt,value
2022-08-20T00:02:14.768Z,100380.44
2022-08-20T00:04:44.323Z,100376.94
2022-08-20T00:07:13.499Z,100374.44
2022-08-20T00:09:41.849Z,100377.72
2022-08-20T00:12:11.181Z,100376.09
2022-08-20T00:14:39.798Z,100379.63
2022-08-20T00:17:07.729Z,100373.28
2022-08-20T00:19:37.884Z,100370.06
2022-08-20T00:22:05.912Z,100369.25
2022-08-20T00:24:34.981Z,100371.41
2022-08-20T00:27:02.943Z,100366.44
2022-08-20T00:29:34.403Z,100366.50
2022-08-20T00:32:02.322Z,100380.09
2022-08-20T00:34:30.476Z,100378.50
2022-08-20T00:36:58.428Z,100384.47
2022-08-20T00:39:26.408Z,100387.41
2022-08-20T00:41:54.326Z,100397.94
2022-08-20T00:44:23.154Z,100393.09
2022-08-20T00:46:52.291Z,100386.53
2022-08-20T00:49:29.596Z,100373.13
2022-08-20T00:52:26.783Z,100374.22
2022-08-20T00:54:59.433Z,100380.00
2022-08-20T00:58:01.324Z,100378.31
2022-08-20T01:00:33.565Z,100375.16
2022-08-20T01:03:02.008Z,100373.19
2022-08-20T01:05:30.192Z,100369.31
2022-08-20T01:08:01.295Z,100368.88
2022-08-20T01:10:36.172Z,100370.13
2022-08-20T01:13:11.227Z,100377.94
2022-08-20T01:15:43.360Z,100376.78
2022-08-20T01:18:18.486Z,100363.38
2022-08-20T01:21:07.715Z,100367.34
2022-08-20T01:23:41.181Z,100368.13
2022-08-20T01:26:11.440Z,100360.50
2022-08-20T01:28:45.389Z,100354.41
2022-08-20T01:31:18.091Z,100350.97
2022-08-20T01:33:48.669Z,100362.56
2022-08-20T01:36:21.082Z,100371.78
2022-08-20T01:38:53.133Z,100369.00
2022-08-20T01:41:28.359Z,100361.34
2022-08-20T01:43:58.530Z,100350.22
2022-08-20T01:46:30.924Z,100342.50
2022-08-20T01:49:00.802Z,100342.06
2022-08-20T01:51:31.983Z,100335.94
2022-08-20T01:54:00.149Z,100339.88
2022-08-20T01:56:31.815Z,100338.34
2022-08-20T01:59:02.404Z,100336.06
2022-08-20T02:01:30.392Z,100338.19
2022-08-20T02:04:02.627Z,100333.78
2022-08-20T02:06:33.049Z,100329.31
2022-08-20T02:09:02.805Z,100329.03
2022-08-20T02:11:32.614Z,100332.84
2022-08-20T02:14:01.607Z,100336.47
2022-08-20T02:16:35.699Z,100341.63
2022-08-20T02:19:10.110Z,100336.22
2022-08-20T02:21:41.426Z,100332.53
2022-08-20T02:24:09.756Z,100327.59
2022-08-20T02:26:39.227Z,100332.25
2022-08-20T02:29:13.166Z,100340.03
2022-08-20T02:32:25.155Z,100327.66
2022-08-20T02:34:34.976Z,100328.22
2022-08-20T02:37:04.169Z,100333.78
2022-08-20T02:39:32.322Z,100322.22
2022-08-20T02:42:04.119Z,100311.66
2022-08-20T02:47:01.175Z,100311.66
2022-08-20T02:49:29.269Z,100310.25
2022-08-20T02:51:57.538Z,100309.97
2022-08-20T02:54:25.464Z,100308.09
2022-08-20T02:56:53.357Z,100304.06
2022-08-20T02:59:21.238Z,100304.78
2022-08-20T03:01:59.653Z,100299.75
2022-08-20T03:04:29.789Z,100293.19
2022-08-20T03:06:59.337Z,100287.78
2022-08-20T03:09:27.545Z,100278.03
2022-08-20T03:11:55.453Z,100301.91
2022-08-20T03:14:23.713Z,100305.06
2022-08-20T03:16:52.091Z,100307.47
2022-08-20T03:19:21.405Z,100316.19
2022-08-20T03:21:49.794Z,100304.50
2022-08-20T03:24:17.807Z,100307.66
2022-08-20T03:26:45.837Z,100304.47
2022-08-20T03:29:13.783Z,100307.25
2022-08-20T03:31:43.786Z,100308.72
2022-08-20T03:34:12.061Z,100317.25
2022-08-20T03:36:40.088Z,100310.25
2022-08-20T03:39:11.867Z,100300.91
2022-08-20T03:41:42.370Z,100300.75
2022-08-20T03:44:10.372Z,100300.47
2022-08-20T03:46:39.673Z,100299.75
2022-08-20T03:49:07.654Z,100298.19
2022-08-20T03:51:57.611Z,100298.53
2022-08-20T03:54:23.766Z,100291.59
2022-08-20T03:56:55.427Z,100297.16
2022-08-20T03:59:23.627Z,100305.72
2022-08-20T04:01:53.559Z,100301.19
2022-08-20T04:04:22.284Z,100303.63
2022-08-20T04:06:53.246Z,100306.94
2022-08-20T04:09:21.276Z,100326.22
2022-08-20T04:11:49.349Z,100323.31
2022-08-20T04:14:19.528Z,100312.88
2022-08-20T04:16:48.973Z,100318.88
2022-08-20T04:19:19.741Z,100311.25
2022-08-20T04:21:49.071Z,100309.41
2022-08-20T04:24:31.143Z,100305.97
2022-08-20T04:27:03.024Z,100311.47
2022-08-20T04:29:34.884Z,100310.31
2022-08-20T04:32:06.844Z,100315.56
2022-08-20T04:34:35.320Z,100318.44
2022-08-20T04:37:04.063Z,100314.25
2022-08-20T04:39:32.194Z,100309.81
2022-08-20T04:42:00.154Z,100312.53
2022-08-20T04:44:28.502Z,100315.94
2022-08-20T04:46:56.410Z,100306.84
2022-08-20T04:49:26.593Z,100319.03
2022-08-20T04:51:54.972Z,100320.47
2022-08-20T04:54:22.934Z,100323.81
2022-08-20T04:56:51.490Z,100320.06
2022-08-20T04:59:19.675Z,100322.97
2022-08-20T05:01:47.545Z,100322.44
2022-08-20T05:04:15.435Z,100333.50
2022-08-20T05:06:43.285Z,100331.81
2022-08-20T05:09:11.343Z,100328.09
2022-08-20T05:11:39.387Z,100332.31
2022-08-20T05:14:09.478Z,100336.00
2022-08-20T05:16:39.333Z,100337.16
2022-08-20T05:19:10.276Z,100338.38
2022-08-20T05:21:38.901Z,100340.56
2022-08-20T05:24:07.871Z,100336.63
2022-08-20T05:26:36.151Z,100330.50
2022-08-20T05:29:05.642Z,100328.16
2022-08-20T05:31:35.057Z,100319.41
2022-08-20T05:34:10.747Z,100333.03
2022-08-20T05:36:49.343Z,100329.06
2022-08-20T05:39:20.678Z,100332.38
2022-08-20T05:41:51.390Z,100334.44
2022-08-20T05:44:20.152Z,100333.00
2022-08-20T05:46:49.079Z,100327.91
2022-08-20T05:49:20.311Z,100343.06
2022-08-20T05:51:51.132Z,100336.00
2022-08-20T05:54:19.611Z,100332.47
2022-08-20T05:56:47.782Z,100334.34
2022-08-20T05:59:16.117Z,100331.97
2022-08-20T06:01:44.215Z,100337.22
2022-08-20T06:04:32.222Z,100341.34
2022-08-20T06:07:06.958Z,100341.69
2022-08-20T06:09:36.544Z,100340.41
2022-08-20T06:12:06.762Z,100332.59
2022-08-20T06:14:35.007Z,100334.13
2022-08-20T06:17:15.228Z,100336.53
2022-08-20T06:19:44.968Z,100345.53
2022-08-20T06:22:17.674Z,100352.47
2022-08-20T06:24:47.823Z,100349.13
2022-08-20T06:27:16.775Z,100357.03
2022-08-20T06:29:45.086Z,100349.53
2022-08-20T06:32:13.496Z,100354.25
2022-08-20T06:34:50.604Z,100360.75
2022-08-20T06:37:23.361Z,100364.44
2022-08-20T06:40:07.014Z,100368.22
2022-08-20T06:42:35.402Z,100368.94
2022-08-20T06:45:07.346Z,100371.06
2022-08-20T06:47:35.352Z,100373.91
2022-08-20T06:50:03.356Z,100381.56
2022-08-20T06:52:51.642Z,100368.53
2022-08-20T06:55:19.823Z,100371.41
2022-08-20T06:57:48.559Z,100379.03
2022-08-20T07:00:19.211Z,100369.22
2022-08-20T07:02:52.960Z,100371.13
2022-08-20T07:05:21.031Z,100374.06
2022-08-20T07:07:51.107Z,100375.50
2022-08-20T07:10:20.516Z,100378.47
2022-08-20T07:12:50.705Z,100378.28
2022-08-20T07:15:22.091Z,100380.34
2022-08-20T07:18:00.723Z,100382.19
2022-08-20T07:20:30.157Z,100381.31
2022-08-20T07:22:58.511Z,100385.38
2022-08-20T07:25:27.510Z,100375.78
2022-08-20T07:28:02.009Z,100383.75
2022-08-20T07:30:56.446Z,100383.38
2022-08-20T07:33:30.418Z,100379.47
2022-08-20T07:36:01.097Z,100380.84
2022-08-20T07:38:31.022Z,100383.22
2022-08-20T07:41:08.495Z,100379.41
2022-08-20T07:43:36.951Z,100385.88
2022-08-20T07:46:09.467Z,100388.31
2022-08-20T07:48:40.330Z,100386.00
2022-08-20T07:51:09.761Z,100399.72
2022-08-20T07:53:40.023Z,100395.78
2022-08-20T07:56:12.814Z,100402.53
2022-08-20T07:58:50.344Z,100398.19
2022-08-20T08:01:22.378Z,100397.84
2022-08-20T08:03:50.878Z,100389.41
2022-08-20T08:06:29.486Z,100399.47
2022-08-20T08:09:04.685Z,100396.66
2022-08-20T08:11:35.143Z,100391.88
2022-08-20T08:14:06.545Z,100404.31
2022-08-20T08:16:35.906Z,100401.13
2022-08-20T08:19:06.819Z,100405.06
2022-08-20T08:21:35.097Z,100406.31
2022-08-20T08:24:03.423Z,100406.31
2022-08-20T08:26:31.559Z,100408.69
2022-08-20T08:29:02.888Z,100401.44
2022-08-20T08:31:30.817Z,100407.88
2022-08-20T08:33:58.936Z,100399.91
2022-08-20T08:36:27.601Z,100398.63
2022-08-20T08:38:56.776Z,100412.31
2022-08-20T08:41:38.061Z,100411.16
2022-08-20T08:44:21.857Z,100414.34
2022-08-20T08:46:56.461Z,100415.56
2022-08-20T08:49:35.172Z,100420.00
2022-08-20T08:52:16.218Z,100426.41
2022-08-20T08:54:50.792Z,100417.59
2022-08-20T08:57:19.573Z,100419.59
2022-08-20T09:00:04.688Z,100424.44
2022-08-20T09:02:35.567Z,100424.00
2022-08-20T09:05:13.555Z,100415.22
2022-08-20T09:07:45.882Z,100417.63
2022-08-20T09:10:13.866Z,100416.81
2022-08-20T09:12:47.120Z,100423.22
2022-08-20T09:15:16.818Z,100416.38
2022-08-20T09:17:44.685Z,100417.47
2022-08-20T09:20:12.732Z,100420.94
2022-08-20T09:22:41.308Z,100417.72
2022-08-20T09:25:09.609Z,100424.47
2022-08-20T09:27:37.776Z,100428.47
2022-08-20T09:30:11.832Z,100419.69
2022-08-20T09:32:39.852Z,100417.28
2022-08-20T09:35:09.561Z,100415.16
2022-08-20T09:37:38.126Z,100412.69
2022-08-20T09:40:08.802Z,100412.94
2022-08-20T09:42:41.380Z,100408.03
2022-08-20T09:45:11.689Z,100407.53
2022-08-20T09:47:48.730Z,100416.13
2022-08-20T09:50:29.733Z,100409.75
2022-08-20T09:53:00.292Z,100406.03
2022-08-20T09:55:38.510Z,100411.16
2022-08-20T09:58:12.916Z,100399.88
2022-08-20T10:00:41.505Z,100404.84
2022-08-20T10:03:09.632Z,100400.56
2022-08-20T10:05:37.631Z,100398.03
2022-08-20T10:08:07.717Z,100402.16
2022-08-20T10:10:36.586Z,100397.81
2022-08-20T10:13:04.971Z,100389.81
2022-08-20T10:15:32.958Z,100395.00
2022-08-20T10:18:07.679Z,100392.06
2022-08-20T10:20:36.337Z,100386.53
2022-08-20T10:23:05.263Z,100393.16
2022-08-20T10:25:33.806Z,100385.63
2022-08-20T10:28:03.618Z,100381.16
2022-08-20T10:30:31.641Z,100379.78
2022-08-20T10:33:04.045Z,100379.06
2022-08-20T10:35:34.413Z,100374.56
2022-08-20T10:38:02.513Z,100377.47
2022-08-20T10:40:30.490Z,100372.63
2022-08-20T10:42:58.371Z,100378.31
2022-08-20T10:45:26.253Z,100372.09
2022-08-20T10:47:54.823Z,100376.28
2022-08-20T10:50:22.844Z,100376.28
2022-08-20T10:52:50.689Z,100370.44
2022-08-20T10:55:19.343Z,100376.47
2022-08-20T10:57:47.369Z,100377.94
2022-08-20T11:00:17.523Z,100371.91
2022-08-20T11:02:57.747Z,100375.19
2022-08-20T11:05:25.843Z,100376.25
2022-08-20T11:07:56.725Z,100378.09
2022-08-20T11:10:30.035Z,100374.03
2022-08-20T11:13:03.072Z,100364.88
2022-08-20T11:15:37.154Z,100367.03
2022-08-20T11:18:06.068Z,100354.94
2022-08-20T11:20:46.046Z,100361.22
2022-08-20T11:23:18.673Z,100361.28
2022-08-20T11:25:48.214Z,100357.00
2022-08-20T11:28:16.752Z,100362.22
2022-08-20T11:31:01.662Z,100357.34
2022-08-20T11:33:29.950Z,100360.81
2022-08-20T11:35:58.085Z,100357.41
2022-08-20T11:38:26.595Z,100354.44
2022-08-20T11:40:55.112Z,100358.72
2022-08-20T11:43:23.489Z,100362.28
2022-08-20T11:45:56.070Z,100353.69
2022-08-20T11:48:24.363Z,100357.53
2022-08-20T11:50:52.554Z,100354.63
2022-08-20T11:53:20.628Z,100356.47
2022-08-20T11:55:50.796Z,100355.31
2022-08-20T11:58:19.286Z,100364.72
2022-08-20T12:00:47.467Z,100361.03
2022-08-20T12:03:16.138Z,100365.03
2022-08-20T12:05:45.725Z,100359.06
2022-08-20T12:08:27.410Z,100356.81
2022-08-20T12:10:59.108Z,100350.47
2022-08-20T12:13:47.469Z,100345.22
2022-08-20T12:16:21.145Z,100348.53
2022-08-20T12:18:49.811Z,100346.19
2022-08-20T12:21:17.974Z,100351.44
2022-08-20T12:23:46.068Z,100354.63
2022-08-20T12:26:14.596Z,100356.63
2022-08-20T12:28:42.845Z,100350.19
2022-08-20T12:31:11.292Z,100345.16
2022-08-20T12:33:39.306Z,100348.59
2022-08-20T12:36:07.827Z,100344.75
2022-08-20T12:38:36.412Z,100344.19
2022-08-20T12:44:32.014Z,100337.16
2022-08-20T12:47:21.550Z,100334.88
2022-08-20T12:49:55.051Z,100333.22
2022-08-20T12:52:24.703Z,100323.94
2022-08-20T12:54:53.267Z,100322.25
2022-08-20T12:57:30.348Z,100326.50
2022-08-20T13:00:08.203Z,100333.53
2022-08-20T13:02:38.850Z,100329.13
2022-08-20T13:05:08.416Z,100330.53
2022-08-20T13:07:36.659Z,100337.75
2022-08-20T13:10:07.163Z,100333.16
2022-08-20T13:12:36.593Z,100336.53
2022-08-20T13:15:05.102Z,100335.13
2022-08-20T13:17:38.597Z,100334.41
2022-08-20T13:20:10.149Z,100335.38
2022-08-20T13:22:38.329Z,100331.03
2022-08-20T13:25:07.239Z,100326.22
2022-08-20T13:27:38.816Z,100329.31
2022-08-20T13:30:08.684Z,100327.91
2022-08-20T13:32:37.169Z,100325.84
2022-08-20T13:35:06.005Z,100312.88
2022-08-20T13:37:33.961Z,100322.75
2022-08-20T13:40:02.766Z,100316.78
2022-08-20T13:42:31.323Z,100318.38
2022-08-20T13:44:59.230Z,100304.72
2022-08-20T13:47:30.309Z,100310.09
2022-08-20T13:50:08.591Z,100304.25
2022-08-20T13:52:39.868Z,100298.69
2022-08-20T13:55:13.317Z,100303.25
2022-08-20T13:57:44.759Z,100290.84
2022-08-20T14:00:17.222Z,100292.94
2022-08-20T14:02:45.269Z,100290.88
2022-08-20T14:05:16.115Z,100288.97
2022-08-20T14:07:47.979Z,100288.19
2022-08-20T14:10:24.296Z,100287.13
2022-08-20T14:12:52.496Z,100293.50
2022-08-20T14:15:20.987Z,100293.38
2022-08-20T14:17:54.821Z,100283.81
2022-08-20T14:20:29.292Z,100292.47
2022-08-20T14:23:01.309Z,100293.81
2022-08-20T14:25:31.528Z,100294.50
2022-08-20T14:28:08.680Z,100287.94
2022-08-20T14:30:36.590Z,100282.59
2022-08-20T14:33:04.845Z,100276.72
2022-08-20T14:35:33.029Z,100274.84
2022-08-20T14:38:02.651Z,100284.53
2022-08-20T14:40:34.280Z,100278.41
2022-08-20T14:43:02.466Z,100277.47
2022-08-20T14:45:30.478Z,100282.38
2022-08-20T14:47:58.815Z,100289.53
2022-08-20T14:50:32.830Z,100278.47
2022-08-20T14:53:02.007Z,100276.75
2022-08-20T14:55:37.771Z,100280.41
2022-08-20T14:58:13.445Z,100282.13
2022-08-20T15:00:42.520Z,100283.38
2022-08-20T15:03:11.151Z,100273.03
2022-08-20T15:05:39.271Z,100277.34
2022-08-20T15:08:10.819Z,100275.69
2022-08-20T15:10:39.929Z,100264.34
2022-08-20T15:13:08.715Z,100276.47
2022-08-20T15:15:37.497Z,100271.41
2022-08-20T15:18:05.718Z,100269.50
2022-08-20T15:20:36.535Z,100284.41
2022-08-20T15:23:05.315Z,100275.00
2022-08-20T15:25:36.591Z,100268.19
2022-08-20T15:28:10.170Z,100267.31
2022-08-20T15:30:41.181Z,100273.41
2022-08-20T15:33:10.512Z,100265.31
2022-08-20T15:35:39.366Z,100268.50
2022-08-20T15:38:07.500Z,100260.69
2022-08-20T15:40:35.743Z,100264.00
2022-08-20T15:43:05.402Z,100263.00
2022-08-20T15:45:34.823Z,100268.44
2022-08-20T15:48:48.067Z,100267.44
2022-08-20T15:51:52.987Z,100275.06
2022-08-20T15:54:25.346Z,100276.28
2022-08-20T15:57:03.546Z,100287.28
2022-08-20T15:59:58.936Z,100292.84
2022-08-20T16:02:42.725Z,100282.06
2022-08-20T16:05:39.043Z,100292.56
2022-08-20T16:08:25.520Z,100296.00
2022-08-20T16:11:21.282Z,100289.09
2022-08-20T16:13:52.277Z,100293.53
2022-08-20T16:16:37.625Z,100287.63
2022-08-20T16:19:07.766Z,100289.88
2022-08-20T16:21:40.333Z,100290.34
2022-08-20T16:24:13.744Z,100289.28
2022-08-20T16:27:01.612Z,100299.59
2022-08-20T16:29:48.585Z,100287.88
2022-08-20T16:32:22.610Z,100282.97
2022-08-20T16:35:00.979Z,100295.13
2022-08-20T16:38:04.837Z,100295.72
2022-08-20T16:40:39.201Z,100289.72
2022-08-20T16:43:10.967Z,100289.88
2022-08-20T16:45:50.914Z,100291.72
2022-08-20T16:48:20.415Z,100285.69
2022-08-20T16:50:58.348Z,100293.97
2022-08-20T16:53:27.712Z,100285.13
2022-08-20T16:55:56.700Z,100283.69
2022-08-20T16:58:25.331Z,100287.00
2022-08-20T17:01:14.501Z,100292.88
2022-08-20T17:03:50.432Z,100290.53
2022-08-20T17:06:40.094Z,100281.31
2022-08-20T17:11:11.425Z,100273.94
2022-08-20T17:13:43.111Z,100278.50
2022-08-20T17:16:14.162Z,100279.66
2022-08-20T17:18:45.259Z,100277.25
2022-08-20T17:21:26.314Z,100278.38
2022-08-20T17:23:58.285Z,100274.81
2022-08-20T17:26:28.743Z,100273.75
2022-08-20T17:28:59.933Z,100273.34
2022-08-20T17:31:38.756Z,100281.09
2022-08-20T17:34:20.957Z,100284.84
2022-08-20T17:37:10.200Z,100291.25
2022-08-20T17:39:47.466Z,100297.38
2022-08-20T17:42:21.080Z,100292.19
2022-08-20T17:44:55.076Z,100303.69
2022-08-20T17:47:31.324Z,100298.94
2022-08-20T17:50:21.432Z,100313.19
2022-08-20T17:52:53.542Z,100309.25
2022-08-20T17:55:21.806Z,100299.13
2022-08-20T17:57:56.014Z,100311.03
2022-08-20T18:00:26.925Z,100319.09
2022-08-20T18:03:02.083Z,100322.22
2022-08-20T18:05:34.848Z,100315.56
2022-08-20T18:08:12.089Z,100319.63
2022-08-20T18:11:02.619Z,100330.56
2022-08-20T18:13:49.727Z,100325.75
2022-08-20T18:16:32.128Z,100319.13
2022-08-20T18:19:13.595Z,100314.66
2022-08-20T18:22:10.209Z,100313.06
2022-08-20T18:24:59.156Z,100313.53
2022-08-20T18:27:33.745Z,100314.75
2022-08-20T18:30:02.976Z,100312.47
2022-08-20T18:32:35.205Z,100308.47
2022-08-20T18:35:14.592Z,100316.25
2022-08-20T18:37:43.348Z,100316.81
2022-08-20T18:40:19.649Z,100326.44
2022-08-20T18:42:48.198Z,100324.03
2022-08-20T18:45:29.381Z,100328.81
2022-08-20T18:47:57.308Z,100324.19
2022-08-20T18:50:40.222Z,100325.22
2022-08-20T18:53:11.163Z,100330.16
2022-08-20T18:56:01.801Z,100338.25
2022-08-20T18:58:31.249Z,100330.66
2022-08-20T19:01:02.356Z,100337.56
2022-08-20T19:03:31.943Z,100337.59
2022-08-20T19:06:08.265Z,100346.50
2022-08-20T19:08:53.820Z,100336.91
2022-08-20T19:11:40.943Z,100342.59
2022-08-20T19:14:33.087Z,100351.13
2022-08-20T19:17:08.986Z,100351.97
2022-08-20T19:19:37.817Z,100349.22
2022-08-20T19:22:06.059Z,100348.44
2022-08-20T19:24:36.688Z,100353.25
2022-08-20T19:27:08.824Z,100356.06
2022-08-20T19:29:49.365Z,100352.84
2022-08-20T19:32:21.553Z,100354.06
2022-08-20T19:34:58.597Z,100355.25
2022-08-20T19:37:39.991Z,100346.88
2022-08-20T19:40:28.208Z,100362.16
2022-08-20T19:42:59.750Z,100350.50
2022-08-20T19:45:27.839Z,100351.75
2022-08-20T19:48:27.167Z,100366.22
2022-08-20T19:50:58.278Z,100368.66
2022-08-20T19:53:31.109Z,100365.41
2022-08-20T19:56:01.939Z,100362.22
2022-08-20T19:58:31.841Z,100364.22
2022-08-20T20:01:02.596Z,100363.81
2022-08-20T20:03:37.836Z,100364.22
2022-08-20T20:06:16.098Z,100356.19
2022-08-20T20:08:54.800Z,100361.41
2022-08-20T20:11:31.981Z,100361.41
2022-08-20T20:14:09.228Z,100364.63
2022-08-20T20:16:38.285Z,100373.03
2022-08-20T20:19:27.551Z,100365.81
2022-08-20T20:22:18.679Z,100371.03
2022-08-20T20:25:06.822Z,100372.22
2022-08-20T20:27:36.744Z,100359.78
2022-08-20T20:30:12.577Z,100363.34
2022-08-20T20:32:45.265Z,100361.34
2022-08-20T20:35:27.291Z,100363.72
2022-08-20T20:38:02.311Z,100369.31
2022-08-20T20:40:43.706Z,100368.50
2022-08-20T20:43:22.219Z,100366.50
2022-08-20T20:46:15.788Z,100366.50
2022-08-20T20:48:48.544Z,100362.47
2022-08-20T20:51:22.918Z,100367.69
2022-08-20T20:53:54.845Z,100369.69
2022-08-20T20:56:29.848Z,100370.44
2022-08-20T20:59:00.292Z,100363.63
2022-08-20T21:01:48.341Z,100365.66
2022-08-20T21:04:22.292Z,100358.81
2022-08-20T21:06:52.894Z,100362.00
2022-08-20T21:09:22.397Z,100364.34
2022-08-20T21:11:53.493Z,100372.31
2022-08-20T21:14:21.431Z,100369.91
2022-08-20T21:16:51.387Z,100379.44
2022-08-20T21:19:19.509Z,100395.47
2022-08-20T21:21:47.430Z,100394.03
2022-08-20T21:24:15.499Z,100400.44
2022-08-20T21:26:43.783Z,100397.22
2022-08-20T21:29:15.585Z,100399.66
2022-08-20T21:31:45.194Z,100404.06
2022-08-20T21:34:16.022Z,100398.03
2022-08-20T21:36:44.141Z,100396.31
2022-08-20T21:39:12.582Z,100402.28
2022-08-20T21:41:42.873Z,100401.84
2022-08-20T21:44:21.225Z,100403.41
2022-08-20T21:46:50.694Z,100404.59
2022-08-20T21:49:22.538Z,100403.00
2022-08-20T21:51:51.930Z,100409.00
2022-08-20T21:54:20.385Z,100403.50
2022-08-20T21:56:52.173Z,100413.16
2022-08-20T21:59:21.556Z,100408.44
2022-08-20T22:01:49.843Z,100412.03
2022-08-20T22:04:17.862Z,100415.66
2022-08-20T22:06:46.318Z,100405.25
2022-08-20T22:09:18.085Z,100399.22
2022-08-20T22:11:54.646Z,100409.59
2022-08-20T22:14:23.811Z,100412.84
2022-08-20T22:16:51.924Z,100407.97
2022-08-20T22:19:19.880Z,100406.34
2022-08-20T22:21:49.625Z,100408.72
2022-08-20T22:24:17.549Z,100410.69
2022-08-20T22:26:50.727Z,100413.47
2022-08-20T22:29:18.656Z,100422.25
2022-08-20T22:31:46.788Z,100427.38
2022-08-20T22:34:17.522Z,100428.91
2022-08-20T22:36:45.782Z,100431.16
2022-08-20T22:39:14.963Z,100438.25
2022-08-20T22:41:42.886Z,100428.66
2022-08-20T22:44:10.954Z,100428.66
2022-08-20T22:46:44.987Z,100432.28
2022-08-20T22:49:18.865Z,100431.84
2022-08-20T22:51:46.900Z,100427.06
2022-08-20T22:54:19.562Z,100433.81
2022-08-20T22:56:47.675Z,100434.16
2022-08-20T22:59:16.346Z,100428.50
2022-08-20T23:01:45.449Z,100426.00
2022-08-20T23:04:19.685Z,100427.53
2022-08-20T23:06:47.736Z,100420.19
2022-08-20T23:09:21.063Z,100414.84
2022-08-20T23:11:50.447Z,100416.84
2022-08-20T23:14:18.858Z,100415.31
2022-08-20T23:16:56.716Z,100417.53
2022-08-20T23:19:25.685Z,100424.34
2022-08-20T23:21:53.698Z,100419.13
2022-08-20T23:24:25.008Z,100426.72
2022-08-20T23:26:53.583Z,100431.84
2022-08-20T23:29:25.739Z,100427.81
2022-08-20T23:31:56.033Z,100427.34
2022-08-20T23:34:25.712Z,100435.41
2022-08-20T23:36:55.254Z,100428.19
2022-08-20T23:39:23.943Z,100426.59
2022-08-20T23:41:52.047Z,100430.22
2022-08-20T23:44:26.630Z,100420.31
2022-08-20T23:46:57.297Z,100419.81
2022-08-20T23:49:25.886Z,100413.31
2022-08-20T23:51:53.845Z,100410.44
2022-08-20T23:54:22.105Z,100410.00
2022-08-20T23:56:50.227Z,100408.41
2022-08-20T23:59:18.305Z,100417.13
